createdAt,value
2023-02-17T00:00:23.647Z,49.97
2023-02-17T00:02:50.566Z,49.93
2023-02-17T00:05:17.503Z,48.90
2023-02-17T00:07:44.398Z,51.90
2023-02-17T00:10:11.408Z,51.40
2023-02-17T00:12:40.712Z,50.00
2023-02-17T00:15:10.262Z,47.97
2023-02-17T00:17:37.278Z,52.83
2023-02-17T00:20:05.049Z,51.73
2023-02-17T00:22:31.964Z,50.77
2023-02-17T00:25:01.832Z,50.57
2023-02-17T00:27:28.738Z,48.43
2023-02-17T00:29:55.693Z,46.37
2023-02-17T00:32:22.605Z,50.27
2023-02-17T00:34:56.859Z,46.20
2023-02-17T00:37:28.405Z,51.07
2023-02-17T00:39:55.325Z,46.50
2023-02-17T00:42:22.231Z,45.60
2023-02-17T00:44:51.303Z,45.37
2023-02-17T00:47:18.216Z,45.70
2023-02-17T00:49:47.540Z,44.13
2023-02-17T00:52:16.868Z,45.20
2023-02-17T00:54:43.719Z,44.83
2023-02-17T00:57:10.917Z,47.93
2023-02-17T00:59:37.813Z,45.63
2023-02-17T01:02:04.775Z,44.63
2023-02-17T01:04:34.729Z,43.50
2023-02-17T01:07:01.707Z,45.80
2023-02-17T01:09:31.801Z,39.57
2023-02-17T01:11:58.703Z,36.30
2023-02-17T01:14:25.731Z,42.30
2023-02-17T01:16:52.614Z,36.37
2023-02-17T01:19:19.916Z,38.47
2023-02-17T01:21:49.073Z,42.27
2023-02-17T01:24:15.942Z,38.57
2023-02-17T01:26:42.808Z,38.13
2023-02-17T01:29:12.255Z,38.47
2023-02-17T01:31:42.572Z,39.67
2023-02-17T01:34:10.926Z,39.63
2023-02-17T01:36:37.955Z,38.37
2023-02-17T01:39:07.288Z,38.03
2023-02-17T01:41:37.460Z,38.97
2023-02-17T01:44:15.256Z,37.73
2023-02-17T01:46:49.141Z,37.90
2023-02-17T01:49:23.676Z,41.47
2023-02-17T01:52:00.910Z,40.80
2023-02-17T01:54:44.167Z,40.83
2023-02-17T01:57:16.826Z,39.83
2023-02-17T01:59:45.464Z,40.60
2023-02-17T02:02:14.943Z,43.20
2023-02-17T02:04:48.434Z,40.70
2023-02-17T02:07:23.529Z,42.87
2023-02-17T02:09:55.945Z,38.13
2023-02-17T02:12:32.655Z,44.80
2023-02-17T02:15:09.123Z,40.77
2023-02-17T02:18:16.790Z,45.40
2023-02-17T02:21:25.547Z,44.63
2023-02-17T02:24:13.712Z,42.07
2023-02-17T02:26:57.420Z,42.17
2023-02-17T02:30:16.595Z,43.17
2023-02-17T02:33:11.863Z,40.37
2023-02-17T02:35:48.441Z,42.20
2023-02-17T02:38:41.340Z,39.87
2023-02-17T02:41:31.396Z,44.50
2023-02-17T02:44:09.129Z,40.87
2023-02-17T02:46:36.481Z,41.70
2023-02-17T02:49:04.838Z,40.83
2023-02-17T02:51:55.783Z,38.20
2023-02-17T02:54:29.273Z,42.73
2023-02-17T02:57:05.009Z,40.23
2023-02-17T03:00:10.218Z,38.67
2023-02-17T03:03:08.588Z,39.67
2023-02-17T03:05:45.288Z,43.00
2023-02-17T03:08:28.538Z,40.20
2023-02-17T03:10:58.126Z,34.20
2023-02-17T03:13:25.125Z,39.13
2023-02-17T03:15:52.312Z,37.93
2023-02-17T03:18:22.762Z,35.80
2023-02-17T03:20:57.795Z,36.30
2023-02-17T03:23:34.725Z,38.40
2023-02-17T03:26:01.706Z,31.43
2023-02-17T03:28:34.620Z,31.40
2023-02-17T03:31:04.478Z,31.23
2023-02-17T03:33:31.414Z,34.77
2023-02-17T03:36:03.143Z,33.87
2023-02-17T03:38:31.280Z,27.83
2023-02-17T03:41:01.255Z,29.00
2023-02-17T03:43:30.204Z,31.10
2023-02-17T03:45:57.665Z,28.03
2023-02-17T03:48:24.749Z,27.20
2023-02-17T03:50:56.704Z,24.90
2023-02-17T03:53:23.620Z,30.23
2023-02-17T03:55:50.469Z,25.97
2023-02-17T03:58:22.874Z,28.53
2023-02-17T04:00:52.315Z,32.10
2023-02-17T04:03:19.243Z,25.53
2023-02-17T04:05:48.761Z,26.50
2023-02-17T04:08:15.869Z,29.20
2023-02-17T04:10:45.184Z,23.90
2023-02-17T04:13:12.171Z,23.43
2023-02-17T04:15:44.616Z,22.43
2023-02-17T04:18:15.086Z,23.67
2023-02-17T04:20:43.209Z,26.80
2023-02-17T04:23:11.888Z,26.43
2023-02-17T04:25:38.973Z,25.37
2023-02-17T04:28:06.901Z,24.43
2023-02-17T04:30:34.602Z,26.40
2023-02-17T04:33:01.821Z,27.30
2023-02-17T04:35:28.736Z,26.27
2023-02-17T04:37:58.244Z,25.30
2023-02-17T04:40:25.163Z,29.57
2023-02-17T04:42:54.295Z,28.20
2023-02-17T04:45:25.909Z,29.80
2023-02-17T04:47:53.035Z,27.73
2023-02-17T04:50:22.501Z,29.10
2023-02-17T04:52:51.999Z,27.87
2023-02-17T04:55:21.568Z,28.27
2023-02-17T04:57:48.450Z,27.87
2023-02-17T05:00:15.751Z,29.13
2023-02-17T05:02:42.740Z,28.07
2023-02-17T05:05:09.773Z,30.33
2023-02-17T05:07:38.745Z,27.60
2023-02-17T05:10:08.525Z,33.63
2023-02-17T05:12:35.567Z,29.67
2023-02-17T05:15:02.872Z,28.93
2023-02-17T05:17:30.002Z,30.63
2023-02-17T05:19:57.136Z,27.03
2023-02-17T05:22:26.663Z,27.17
2023-02-17T05:24:56.289Z,30.70
2023-02-17T05:27:23.308Z,31.80
2023-02-17T05:29:51.454Z,29.30
2023-02-17T05:32:18.854Z,31.50
2023-02-17T05:34:52.808Z,34.73
2023-02-17T05:37:24.154Z,31.20
2023-02-17T05:39:51.031Z,28.47
2023-02-17T05:42:17.928Z,31.47
2023-02-17T05:44:49.952Z,29.37
2023-02-17T05:47:16.918Z,34.30
2023-02-17T05:49:46.368Z,28.17
2023-02-17T05:52:16.875Z,29.00
2023-02-17T05:54:48.875Z,34.33
2023-02-17T05:57:18.887Z,30.37
2023-02-17T05:59:45.745Z,30.97
2023-02-17T06:02:17.189Z,35.07
2023-02-17T06:04:44.135Z,30.77
2023-02-17T06:07:11.184Z,31.60
2023-02-17T06:09:41.006Z,34.00
2023-02-17T06:12:10.197Z,33.37
2023-02-17T06:14:40.525Z,31.23
2023-02-17T06:17:07.509Z,33.73
2023-02-17T06:19:34.381Z,34.70
2023-02-17T06:22:01.318Z,32.13
2023-02-17T06:24:32.780Z,32.50
2023-02-17T06:27:01.242Z,31.77
2023-02-17T06:29:28.158Z,28.87
2023-02-17T06:31:55.161Z,40.60
2023-02-17T06:34:22.150Z,26.13
2023-02-17T06:36:52.089Z,34.60
2023-02-17T06:39:23.608Z,32.10
2023-02-17T06:41:52.944Z,30.73
2023-02-17T06:44:22.449Z,33.37
2023-02-17T06:46:49.315Z,35.87
2023-02-17T06:49:18.503Z,35.37
2023-02-17T06:51:50.841Z,36.93
2023-02-17T06:54:17.775Z,34.90
2023-02-17T06:56:44.632Z,36.30
2023-02-17T06:59:11.704Z,40.07
2023-02-17T07:01:41.386Z,35.60
2023-02-17T07:04:12.904Z,33.80
2023-02-17T07:06:39.797Z,39.30
2023-02-17T07:09:06.636Z,40.83
2023-02-17T07:11:35.796Z,40.10
2023-02-17T07:14:02.959Z,37.50
2023-02-17T07:16:29.803Z,38.30
2023-02-17T07:19:00.240Z,37.97
2023-02-17T07:21:27.186Z,35.03
2023-02-17T07:23:54.184Z,45.70
2023-02-17T07:26:21.161Z,34.40
2023-02-17T07:28:48.233Z,38.07
2023-02-17T07:31:20.378Z,36.23
2023-02-17T07:33:48.668Z,34.40
2023-02-17T07:36:17.623Z,41.40
2023-02-17T07:38:44.981Z,40.10
2023-02-17T07:41:18.884Z,36.37
2023-02-17T07:43:47.268Z,36.90
2023-02-17T07:46:22.320Z,36.77
2023-02-17T07:48:49.203Z,37.30
2023-02-17T07:51:20.636Z,33.10
2023-02-17T07:53:51.585Z,35.93
2023-02-17T07:56:23.275Z,32.73
2023-02-17T07:58:50.413Z,38.17
2023-02-17T08:01:24.404Z,32.50
2023-02-17T08:03:52.099Z,34.83
2023-02-17T08:06:22.742Z,33.10
2023-02-17T08:09:09.720Z,31.33
2023-02-17T08:11:56.038Z,30.63
2023-02-17T08:14:25.413Z,30.73
2023-02-17T08:16:53.111Z,30.57
2023-02-17T08:19:20.156Z,37.63
2023-02-17T08:21:49.641Z,31.33
2023-02-17T08:24:16.667Z,28.47
2023-02-17T08:26:43.556Z,31.10
2023-02-17T08:29:12.957Z,32.83
2023-02-17T08:31:40.033Z,35.73
2023-02-17T08:34:10.490Z,29.43
2023-02-17T08:36:37.766Z,27.63
2023-02-17T08:39:16.405Z,23.33
2023-02-17T08:41:46.577Z,26.10
2023-02-17T08:44:16.965Z,32.03
2023-02-17T08:46:47.938Z,25.40
2023-02-17T08:49:21.067Z,25.83
2023-02-17T08:51:49.322Z,30.47
2023-02-17T08:54:16.520Z,27.27
2023-02-17T08:56:44.925Z,25.23
2023-02-17T08:59:13.345Z,21.37
2023-02-17T09:01:43.939Z,23.57
2023-02-17T09:04:14.295Z,25.23
2023-02-17T09:06:56.682Z,25.30
2023-02-17T09:09:29.302Z,23.30
2023-02-17T09:11:58.227Z,27.97
2023-02-17T09:14:27.781Z,23.23
2023-02-17T09:16:58.687Z,27.13
2023-02-17T09:19:26.309Z,25.37
2023-02-17T09:21:56.046Z,30.13
2023-02-17T09:24:23.210Z,21.07
2023-02-17T09:26:50.225Z,27.10
2023-02-17T09:29:19.747Z,20.00
2023-02-17T09:31:46.934Z,18.73
2023-02-17T09:34:14.772Z,21.40
2023-02-17T09:36:43.164Z,27.40
2023-02-17T09:39:14.924Z,18.93
2023-02-17T09:41:53.284Z,22.90
2023-02-17T09:44:26.051Z,20.70
2023-02-17T09:47:11.906Z,18.93
2023-02-17T09:49:49.583Z,17.00
2023-02-17T09:52:40.249Z,26.70
2023-02-17T09:55:15.578Z,24.60
2023-02-17T09:57:59.315Z,18.43
2023-02-17T10:00:33.768Z,20.27
2023-02-17T10:03:13.708Z,24.93
2023-02-17T10:05:51.693Z,19.80
2023-02-17T10:08:28.617Z,17.33
2023-02-17T10:11:08.075Z,24.70
2023-02-17T10:13:37.819Z,16.83
2023-02-17T10:16:10.750Z,26.40
2023-02-17T10:18:49.620Z,21.33
2023-02-17T10:21:29.857Z,23.30
2023-02-17T10:23:59.551Z,18.27
2023-02-17T10:26:53.535Z,17.53
2023-02-17T10:29:58.897Z,23.07
2023-02-17T10:32:28.649Z,17.53
2023-02-17T10:35:14.731Z,20.90
2023-02-17T10:37:48.312Z,21.73
2023-02-17T10:40:25.741Z,19.40
2023-02-17T10:43:00.934Z,22.77
2023-02-17T10:45:36.413Z,18.40
2023-02-17T10:48:08.664Z,22.90
2023-02-17T10:50:41.662Z,20.00
2023-02-17T10:53:25.126Z,16.93
2023-02-17T10:56:05.082Z,19.33
2023-02-17T10:58:56.913Z,16.97
2023-02-17T11:01:27.737Z,18.73
2023-02-17T11:04:13.956Z,20.07
2023-02-17T11:07:03.392Z,16.97
2023-02-17T11:09:33.159Z,16.60
2023-02-17T11:12:13.212Z,23.53
2023-02-17T11:14:47.337Z,21.77
2023-02-17T11:17:40.039Z,20.60
2023-02-17T11:20:29.736Z,21.63
2023-02-17T11:23:06.844Z,20.77
2023-02-17T11:25:37.816Z,20.80
2023-02-17T11:28:14.712Z,23.83
2023-02-17T11:30:52.268Z,21.97
2023-02-17T11:33:37.110Z,30.07
2023-02-17T11:36:07.556Z,24.23
2023-02-17T11:38:40.307Z,27.57
2023-02-17T11:41:08.464Z,26.93
2023-02-17T11:43:36.360Z,25.37
2023-02-17T11:46:24.215Z,26.50
2023-02-17T11:48:51.088Z,23.60
2023-02-17T11:51:50.567Z,29.03
2023-02-17T11:54:32.703Z,28.37
2023-02-17T11:57:28.768Z,25.30
2023-02-17T12:00:13.341Z,27.00
2023-02-17T12:03:05.044Z,27.13
2023-02-17T12:06:08.530Z,28.70
2023-02-17T12:09:32.133Z,22.90
2023-02-17T12:12:09.996Z,23.03
2023-02-17T12:14:45.739Z,21.63
2023-02-17T12:17:57.327Z,22.70
2023-02-17T12:20:37.007Z,23.50
2023-02-17T12:24:00.624Z,25.60
2023-02-17T12:26:38.501Z,22.00
2023-02-17T12:29:41.439Z,23.90
2023-02-17T12:32:22.562Z,17.70
2023-02-17T12:34:59.360Z,21.67
2023-02-17T12:37:32.974Z,18.50
2023-02-17T12:40:39.168Z,22.20
2023-02-17T12:43:39.904Z,18.00
2023-02-17T12:46:17.714Z,18.63
2023-02-17T12:48:55.734Z,12.70
2023-02-17T12:51:48.690Z,19.57
2023-02-17T12:54:35.893Z,16.50
2023-02-17T12:57:25.075Z,14.30
2023-02-17T12:59:57.286Z,12.97
2023-02-17T13:02:26.363Z,17.93
2023-02-17T13:04:59.601Z,13.33
2023-02-17T13:08:14.596Z,10.43
2023-02-17T13:10:41.743Z,11.13
2023-02-17T13:13:16.889Z,12.43
2023-02-17T13:15:48.549Z,10.30
2023-02-17T13:18:38.708Z,12.53
2023-02-17T13:21:22.827Z,9.40
2023-02-17T13:24:41.237Z,9.83
2023-02-17T13:27:33.901Z,7.93
2023-02-17T13:30:21.750Z,8.20
2023-02-17T13:33:02.561Z,7.50
2023-02-17T13:35:36.729Z,8.10
2023-02-17T13:38:04.518Z,8.27
2023-02-17T13:40:42.934Z,6.30
2023-02-17T13:43:17.378Z,6.63
2023-02-17T13:45:59.911Z,6.20
2023-02-17T13:48:34.758Z,6.07
2023-02-17T13:51:09.867Z,6.13
2023-02-17T13:53:40.493Z,10.20
2023-02-17T13:56:30.544Z,5.80
2023-02-17T13:59:18.284Z,6.07
2023-02-17T14:01:49.480Z,5.50
2023-02-17T14:04:28.281Z,5.90
2023-02-17T14:06:59.438Z,5.10
2023-02-17T14:09:34.893Z,4.60
2023-02-17T14:12:06.922Z,4.73
2023-02-17T14:14:37.939Z,4.50
2023-02-17T14:17:33.231Z,4.20
2023-02-17T14:20:00.995Z,4.50
2023-02-17T14:22:37.994Z,5.07
2023-02-17T14:25:14.203Z,4.97
2023-02-17T14:27:47.882Z,5.10
2023-02-17T14:30:28.399Z,6.77
2023-02-17T14:33:10.843Z,8.87
2023-02-17T14:35:39.374Z,5.90
2023-02-17T14:38:54.788Z,6.47
2023-02-17T14:41:24.177Z,9.03
2023-02-17T14:43:53.340Z,7.33
2023-02-17T14:46:22.933Z,9.40
2023-02-17T14:48:51.413Z,7.17
2023-02-17T14:51:22.424Z,9.30
2023-02-17T14:53:50.403Z,10.47
2023-02-17T14:56:32.612Z,6.70
2023-02-17T14:58:59.649Z,6.43
2023-02-17T15:01:26.780Z,6.60
2023-02-17T15:03:56.893Z,12.50
2023-02-17T15:06:41.624Z,9.53
2023-02-17T15:09:15.254Z,7.20
2023-02-17T15:11:45.673Z,6.53
2023-02-17T15:14:19.364Z,8.27
2023-02-17T15:16:50.437Z,10.93
2023-02-17T15:19:18.201Z,11.27
2023-02-17T15:21:51.141Z,17.10
2023-02-17T15:24:33.382Z,15.53
2023-02-17T15:27:02.872Z,8.10
2023-02-17T15:29:30.314Z,9.10
2023-02-17T15:32:03.503Z,6.43
2023-02-17T15:34:37.098Z,8.03
2023-02-17T15:37:04.025Z,6.17
2023-02-17T15:39:30.973Z,11.00
2023-02-17T15:42:10.452Z,16.93
2023-02-17T15:44:44.420Z,17.00
2023-02-17T15:47:19.057Z,6.20
2023-02-17T15:49:48.357Z,8.87
2023-02-17T15:52:15.748Z,8.73
2023-02-17T15:54:48.378Z,5.53
2023-02-17T15:57:24.472Z,10.43
2023-02-17T15:59:54.959Z,10.67
2023-02-17T16:02:24.515Z,10.00
2023-02-17T16:04:51.537Z,7.30
2023-02-17T16:07:18.563Z,10.23
2023-02-17T16:09:45.544Z,7.70
2023-02-17T16:12:19.145Z,10.77
2023-02-17T16:14:46.183Z,13.90
2023-02-17T16:17:16.984Z,9.73
2023-02-17T16:19:48.516Z,10.63
2023-02-17T16:22:18.531Z,6.83
2023-02-17T16:24:45.465Z,12.13
2023-02-17T16:27:15.965Z,14.83
2023-02-17T16:29:43.448Z,21.03
2023-02-17T16:32:13.778Z,17.13
2023-02-17T16:34:43.343Z,21.67
2023-02-17T16:37:20.972Z,16.67
2023-02-17T16:39:48.028Z,10.67
2023-02-17T16:42:15.700Z,21.53
2023-02-17T16:44:45.680Z,8.83
2023-02-17T16:47:22.642Z,19.10
2023-02-17T16:49:50.473Z,19.20
2023-02-17T16:52:26.100Z,32.23
2023-02-17T16:54:53.805Z,29.83
2023-02-17T16:57:23.775Z,20.80
2023-02-17T16:59:50.734Z,20.43
2023-02-17T17:02:22.334Z,19.40
2023-02-17T17:04:49.384Z,17.30
2023-02-17T17:07:18.349Z,27.47
2023-02-17T17:10:12.594Z,20.50
2023-02-17T17:12:35.200Z,15.00
2023-02-17T17:15:02.200Z,31.30
2023-02-17T17:17:30.244Z,18.40
2023-02-17T17:19:57.145Z,18.30
2023-02-17T17:22:26.198Z,23.57
2023-02-17T17:24:53.150Z,19.17
2023-02-17T17:27:20.158Z,19.47
2023-02-17T17:29:47.200Z,21.03
2023-02-17T17:32:17.870Z,21.63
2023-02-17T17:34:45.105Z,20.43
2023-02-17T17:37:14.564Z,23.00
2023-02-17T17:39:44.565Z,15.37
2023-02-17T17:42:11.977Z,16.73
2023-02-17T17:44:39.382Z,26.73
2023-02-17T17:47:21.327Z,10.70
2023-02-17T17:49:55.478Z,23.50
2023-02-17T17:52:23.019Z,20.57
2023-02-17T17:54:54.571Z,21.07
2023-02-17T17:57:23.795Z,20.50
2023-02-17T17:59:51.210Z,22.73
2023-02-17T18:02:18.160Z,15.23
2023-02-17T18:04:45.375Z,18.07
2023-02-17T18:07:12.540Z,17.40
2023-02-17T18:09:40.262Z,13.53
2023-02-17T18:12:16.608Z,17.17
2023-02-17T18:14:51.843Z,27.97
2023-02-17T18:17:23.153Z,15.93
2023-02-17T18:19:54.915Z,20.83
2023-02-17T18:22:24.593Z,20.87
2023-02-17T18:24:54.526Z,27.83
2023-02-17T18:27:23.727Z,19.90
2023-02-17T18:30:02.208Z,14.63
2023-02-17T18:32:29.615Z,23.23
2023-02-17T18:34:59.074Z,16.70
2023-02-17T18:37:26.175Z,28.30
2023-02-17T18:39:53.026Z,17.83
2023-02-17T18:42:19.980Z,27.20
2023-02-17T18:44:49.106Z,19.17
2023-02-17T18:47:16.094Z,25.63
2023-02-17T18:49:43.045Z,16.93
2023-02-17T18:52:10.534Z,26.97
2023-02-17T18:54:45.278Z,23.40
2023-02-17T18:57:12.516Z,18.23
2023-02-17T18:59:42.491Z,19.77
2023-02-17T19:02:11.412Z,29.70
2023-02-17T19:04:43.403Z,23.53
2023-02-17T19:07:10.744Z,20.00
2023-02-17T19:09:44.092Z,14.10
2023-02-17T19:12:16.208Z,21.37
2023-02-17T19:14:43.216Z,10.10
2023-02-17T19:17:11.306Z,15.23
2023-02-17T19:19:41.992Z,18.57
2023-02-17T19:22:09.545Z,26.17
2023-02-17T19:24:41.612Z,31.43
2023-02-17T19:27:09.088Z,16.50
2023-02-17T19:29:38.448Z,26.47
2023-02-17T19:32:05.589Z,23.20
2023-02-17T19:34:32.683Z,17.10
2023-02-17T19:37:04.338Z,11.90
2023-02-17T19:39:32.012Z,21.80
2023-02-17T19:41:58.974Z,22.30
2023-02-17T19:44:30.786Z,24.63
2023-02-17T19:47:00.299Z,20.07
2023-02-17T19:49:34.027Z,21.20
2023-02-17T19:52:01.147Z,29.03
2023-02-17T19:54:28.218Z,17.10
2023-02-17T19:56:57.423Z,16.03
2023-02-17T19:59:24.668Z,25.50
2023-02-17T20:01:51.769Z,21.03
2023-02-17T20:04:20.241Z,15.30
2023-02-17T20:06:48.238Z,21.07
2023-02-17T20:09:22.759Z,30.90
2023-02-17T20:11:53.525Z,21.77
2023-02-17T20:14:21.392Z,18.37
2023-02-17T20:16:53.307Z,40.87
2023-02-17T20:19:22.949Z,19.33
2023-02-17T20:21:54.507Z,33.70
2023-02-17T20:24:21.738Z,23.70
2023-02-17T20:26:53.598Z,21.43
2023-02-17T20:29:20.796Z,18.93
2023-02-17T20:31:48.100Z,16.90
2023-02-17T20:34:33.477Z,24.73
2023-02-17T20:37:07.913Z,25.30
2023-02-17T20:39:39.751Z,16.47
2023-02-17T20:42:06.774Z,52.53
2023-02-17T20:44:38.805Z,25.70
2023-02-17T20:47:06.056Z,27.97
2023-02-17T20:49:36.315Z,21.17
2023-02-17T20:52:03.514Z,13.83
2023-02-17T20:54:35.837Z,34.83
2023-02-17T20:57:05.260Z,27.60
2023-02-17T20:59:33.234Z,21.83
2023-02-17T21:02:00.161Z,14.47
2023-02-17T21:04:27.256Z,27.27
2023-02-17T21:06:56.866Z,30.77
2023-02-17T21:09:26.477Z,33.53
2023-02-17T21:11:53.978Z,24.83
2023-02-17T21:14:22.948Z,21.93
2023-02-17T21:16:52.964Z,34.73
2023-02-17T21:19:22.883Z,29.10
2023-02-17T21:21:49.834Z,25.17
2023-02-17T21:24:22.589Z,26.77
2023-02-17T21:26:52.098Z,26.03
2023-02-17T21:29:21.974Z,14.83
2023-02-17T21:31:49.019Z,19.33
2023-02-17T21:34:18.136Z,27.77
2023-02-17T21:36:47.674Z,23.10
2023-02-17T21:39:17.666Z,21.10
2023-02-17T21:41:44.540Z,41.40
2023-02-17T21:44:32.600Z,24.50
2023-02-17T21:46:59.495Z,23.00
2023-02-17T21:49:28.654Z,40.23
2023-02-17T21:52:01.059Z,28.83
2023-02-17T21:54:28.000Z,22.30
2023-02-17T21:56:54.974Z,35.20
2023-02-17T21:59:21.904Z,20.43
2023-02-17T22:01:48.820Z,19.80
2023-02-17T22:04:15.719Z,14.97
2023-02-17T22:06:46.209Z,29.40
2023-02-17T22:09:18.276Z,27.57
2023-02-17T22:11:49.513Z,14.10
2023-02-17T22:14:20.795Z,37.20
2023-02-17T22:16:49.174Z,26.20
2023-02-17T22:19:22.540Z,25.57
2023-02-17T22:21:51.427Z,27.60
2023-02-17T22:24:20.748Z,19.80
2023-02-17T22:26:50.241Z,32.50
2023-02-17T22:29:17.157Z,29.07
2023-02-17T22:31:44.252Z,19.37
2023-02-17T22:34:14.035Z,24.77
2023-02-17T22:36:41.110Z,23.97
2023-02-17T22:39:08.678Z,11.83
2023-02-17T22:41:36.733Z,22.70
2023-02-17T22:44:09.205Z,23.50
2023-02-17T22:46:41.687Z,17.33
2023-02-17T22:49:14.185Z,22.17
2023-02-17T22:51:41.348Z,15.13
2023-02-17T22:54:09.136Z,26.27
2023-02-17T22:56:39.077Z,20.17
2023-02-17T22:59:07.063Z,28.00
2023-02-17T23:01:38.189Z,26.97
2023-02-17T23:04:05.813Z,21.47
2023-02-17T23:06:38.066Z,21.90
2023-02-17T23:09:10.406Z,25.07
2023-02-17T23:11:49.964Z,21.13
2023-02-17T23:14:25.643Z,22.37
2023-02-17T23:17:00.179Z,24.70
2023-02-17T23:19:33.317Z,40.87
2023-02-17T23:22:05.584Z,15.97
2023-02-17T23:24:34.735Z,17.70
2023-02-17T23:27:03.255Z,12.27
2023-02-17T23:29:33.666Z,22.93
2023-02-17T23:32:04.022Z,22.17
2023-02-17T23:34:31.246Z,18.83
2023-02-17T23:37:00.924Z,19.57
2023-02-17T23:39:28.291Z,21.77
2023-02-17T23:41:57.389Z,34.53
2023-02-17T23:44:24.498Z,30.40
2023-02-17T23:46:54.014Z,14.60
2023-02-17T23:49:21.020Z,38.67
2023-02-17T23:51:50.104Z,30.07
2023-02-17T23:54:17.032Z,27.17
2023-02-17T23:56:46.253Z,21.97
2023-02-17T23:59:14.822Z,19.03
